Time;durP1;ratioP1;P1;durP2;ratioP2;P2;SDS_P1;SDS_P2;PMS_P1;PMS_P2;Temp;Humidity;BMP_temperature;BMP_pressure;BME280_temperature;BME280_humidity;BME280_pressure;Samples;Min_cycle;Max_cycle;Signal;HPM_P1;HPM_P2
2022/08/05 00:01:19;;;;;;;3.75;3.25;;;;;;;25.13;52.30;97646.50;5054052;28;20213;-70
2022/08/05 00:03:47;;;;;;;3.50;3.20;;;;;;;25.06;52.65;97645.38;5054028;28;20209;-71
2022/08/05 00:06:13;;;;;;;3.60;3.00;;;;;;;25.08;52.68;97646.66;5053977;28;20213;-71
2022/08/05 00:08:40;;;;;;;3.88;2.72;;;;;;;25.12;52.68;97642.19;5053853;28;20225;-71
2022/08/05 00:11:12;;;;;;;3.83;3.53;;;;;;;25.13;53.01;97651.94;5053931;28;20292;-71
2022/08/05 00:13:41;;;;;;;4.85;3.05;;;;;;;25.08;53.15;97641.22;5053624;28;20280;-70
2022/08/05 00:16:14;;;;;;;3.22;3.03;;;;;;;25.07;53.68;97638.81;5053822;28;20232;-71
2022/08/05 00:18:43;;;;;;;6.00;3.78;;;;;;;25.01;53.75;97648.28;5053455;28;20253;-71
2022/08/05 00:21:10;;;;;;;4.10;3.72;;;;;;;24.98;54.56;97648.91;5053743;28;20205;-71
2022/08/05 00:23:37;;;;;;;5.40;3.42;;;;;;;24.95;54.78;97647.63;5053462;28;20292;-71
2022/08/05 00:26:04;;;;;;;4.05;3.53;;;;;;;24.98;54.74;97657.06;5053541;28;20205;-71
2022/08/05 00:28:31;;;;;;;4.03;3.63;;;;;;;24.94;55.05;97654.19;5053289;28;20244;-71
2022/08/05 00:30:58;;;;;;;4.28;3.70;;;;;;;24.94;54.99;97650.66;5053574;28;20201;-70
2022/08/05 00:33:25;;;;;;;5.05;3.60;;;;;;;25.00;54.79;97652.09;5054365;28;20209;-71
2022/08/05 00:35:51;;;;;;;3.72;3.42;;;;;;;24.93;55.43;97643.63;5053234;28;20240;-71
2022/08/05 00:38:17;;;;;;;3.75;3.45;;;;;;;24.95;55.07;97658.50;5054030;28;20205;-71
2022/08/05 00:40:50;;;;;;;4.57;3.47;;;;;;;24.89;55.11;97664.44;5053202;28;20211;-71
2022/08/05 00:43:17;;;;;;;3.95;3.65;;;;;;;24.96;54.90;97665.53;5053032;28;20216;-71
2022/08/05 00:45:44;;;;;;;3.75;3.45;;;;;;;25.05;53.84;97671.00;5053432;28;20205;-71
2022/08/05 00:48:18;;;;;;;4.22;3.20;;;;;;;25.10;52.62;97676.28;5053397;28;20228;-71
2022/08/05 00:50:47;;;;;;;4.22;2.90;;;;;;;25.15;52.42;97678.81;5053258;28;20204;-71
2022/08/05 00:53:16;;;;;;;3.20;2.90;;;;;;;25.23;51.49;97692.41;5053386;28;20205;-71
2022/08/05 00:55:43;;;;;;;3.42;3.13;;;;;;;25.26;51.00;97699.13;5053417;28;20274;-71
2022/08/05 00:58:11;;;;;;;3.20;2.63;;;;;;;25.22;50.68;97695.44;5053293;28;20300;-71
2022/08/05 01:00:39;;;;;;;2.95;2.45;;;;;;;25.44;46.97;97703.47;5056014;28;20260;-70
2022/08/05 01:03:06;;;;;;;3.95;2.60;;;;;;;25.59;46.52;97711.13;5057625;28;20213;-71
2022/08/05 01:05:32;;;;;;;3.65;2.50;;;;;;;25.58;46.45;97712.25;5057640;28;20237;-71
2022/08/05 01:07:59;;;;;;;2.65;2.45;;;;;;;25.52;46.03;97705.38;5057295;28;20201;-71
2022/08/05 01:10:40;;;;;;;3.15;2.55;;;;;;;25.68;44.79;97712.69;5056960;28;20232;-71
2022/08/05 01:13:14;;;;;;;5.47;2.38;;;;;;;25.75;43.86;97704.84;5057270;28;20189;-71
2022/08/05 01:15:50;;;;;;;4.75;2.58;;;;;;;25.73;44.68;97709.81;5056989;28;20189;-71
2022/08/05 01:18:24;;;;;;;6.53;2.83;;;;;;;25.75;45.17;97714.94;5056882;28;20596;-71
2022/08/05 01:21:22;;;;;;;7.03;2.63;;;;;;;25.59;46.21;97725.53;5057172;28;20292;-71
2022/08/05 01:23:54;;;;;;;4.07;2.25;;;;;;;25.61;46.30;97722.50;5056832;28;20288;-71
2022/08/05 01:26:36;;;;;;;4.03;2.45;;;;;;;25.56;47.07;97722.66;5056781;28;20213;-71
2022/08/05 01:29:08;;;;;;;6.45;2.80;;;;;;;25.50;47.51;97724.75;5056909;28;20236;-71
2022/08/05 01:31:35;;;;;;;11.15;3.15;;;;;;;25.57;47.41;97726.97;5057214;28;20190;-71
2022/08/05 01:34:15;;;;;;;4.05;2.40;;;;;;;25.51;47.85;97731.00;5056918;28;20292;-71
2022/08/05 01:36:58;;;;;;;6.47;2.33;;;;;;;25.53;48.23;97742.34;5056756;28;20213;-71
2022/08/05 01:39:26;;;;;;;5.22;2.33;;;;;;;25.40;48.74;97743.34;5056897;28;20314;-71
2022/08/05 01:41:54;;;;;;;5.10;2.17;;;;;;;25.41;48.90;97753.09;5056738;28;20304;-71
2022/08/05 01:44:21;;;;;;;2.72;2.50;;;;;;;25.36;49.41;97758.69;5056374;28;20639;-71
2022/08/05 01:46:48;;;;;;;3.40;2.30;;;;;;;25.36;49.75;97755.97;5056351;28;20660;-71
2022/08/05 01:49:21;;;;;;;4.50;2.40;;;;;;;25.21;49.99;97754.53;5056535;28;20221;-70
2022/08/05 01:51:48;;;;;;;6.40;2.67;;;;;;;25.18;50.42;97754.34;5056587;28;20189;-71
2022/08/05 01:54:17;;;;;;;8.32;2.78;;;;;;;25.14;50.77;97759.63;5056193;28;20643;-70
2022/08/05 01:56:44;;;;;;;5.25;2.67;;;;;;;25.05;51.30;97766.22;5056387;28;20229;-71
2022/08/05 01:59:14;;;;;;;6.38;2.83;;;;;;;25.08;51.46;97762.81;5055994;28;20261;-71
2022/08/05 02:01:42;;;;;;;6.90;2.65;;;;;;;25.07;51.79;97769.41;5056073;28;20637;-71
2022/08/05 02:04:10;;;;;;;8.02;2.55;;;;;;;25.18;51.63;97767.94;5055999;28;20690;-71
2022/08/05 02:06:38;;;;;;;3.90;2.50;;;;;;;25.08;52.08;97762.81;5056268;28;20231;-71
2022/08/05 02:09:05;;;;;;;7.03;2.50;;;;;;;25.10;52.03;97763.31;5056134;28;20312;-71
2022/08/05 02:12:01;;;;;;;6.90;2.50;;;;;;;25.05;52.46;97760.75;5055914;28;20213;-71
2022/08/05 02:14:32;;;;;;;6.50;2.05;;;;;;;24.99;53.03;97762.81;5048758;28;20205;-71
2022/08/05 02:17:07;;;;;;;4.30;2.47;;;;;;;24.96;52.65;97757.22;5055695;28;20576;-71
2022/08/05 02:19:37;;;;;;;6.63;2.50;;;;;;;24.95;52.93;97761.88;5055986;28;20250;-71
2022/08/05 02:22:45;;;;;;;4.72;2.30;;;;;;;24.78;53.99;97761.03;5055957;28;20281;-71
2022/08/05 02:25:18;;;;;;;4.18;2.20;;;;;;;24.70;54.20;97765.31;4974810;28;20686;-71
2022/08/05 02:27:47;;;;;;;3.30;2.40;;;;;;;24.65;54.22;97770.13;4974829;28;20189;-71
2022/08/05 02:30:15;;;;;;;5.65;2.50;;;;;;;24.69;53.93;97771.88;5003055;28;20237;-71
2022/08/05 02:32:46;;;;;;;5.25;2.53;;;;;;;24.74;54.22;97771.72;5055519;28;20688;-71
2022/08/05 02:35:19;;;;;;;6.40;2.70;;;;;;;24.69;53.96;97776.53;5055774;28;20190;-71
2022/08/05 02:37:46;;;;;;;10.50;2.72;;;;;;;24.68;54.13;97774.91;5055633;28;20220;-71
2022/08/05 02:40:16;;;;;;;5.55;2.65;;;;;;;24.58;54.63;97778.72;5055265;28;20779;-71
2022/08/05 02:42:44;;;;;;;5.60;2.65;;;;;;;24.71;54.10;97780.53;5055544;28;20205;-71
2022/08/05 02:45:11;;;;;;;7.85;2.65;;;;;;;24.61;55.04;97780.03;5055330;28;20213;-71
2022/08/05 02:47:38;;;;;;;5.53;2.20;;;;;;;24.56;55.00;97789.06;5055493;28;20284;-71
2022/08/05 02:50:07;;;;;;;7.22;2.50;;;;;;;24.52;55.46;97785.38;5055606;28;20221;-71
2022/08/05 02:52:34;;;;;;;7.20;2.70;;;;;;;24.48;55.41;97784.44;5055387;28;20300;-71
2022/08/05 02:55:02;;;;;;;7.38;3.10;;;;;;;24.54;55.30;97776.91;5037676;28;20212;-71
2022/08/05 02:57:30;;;;;;;6.05;2.65;;;;;;;24.56;55.06;97788.28;5054902;28;20700;-70
2022/08/05 02:59:56;;;;;;;4.25;2.58;;;;;;;24.50;55.48;97774.03;5054860;28;20278;-71
2022/08/05 03:02:29;;;;;;;7.63;2.78;;;;;;;24.54;55.50;97771.47;5055064;28;20292;-71
2022/08/05 03:04:57;;;;;;;6.07;2.80;;;;;;;24.42;56.00;97780.25;5054873;28;20189;-71
2022/08/05 03:07:26;;;;;;;6.00;2.67;;;;;;;24.38;56.21;97790.13;5055130;28;20205;-71
2022/08/05 03:09:56;;;;;;;7.05;2.80;;;;;;;24.31;56.75;97789.78;5055017;28;20316;-71
2022/08/05 03:12:38;;;;;;;8.07;3.03;;;;;;;24.41;55.96;97800.38;5055028;28;20204;-70
2022/08/05 03:15:07;;;;;;;3.92;2.35;;;;;;;24.43;56.09;97805.50;5054984;28;20281;-71
2022/08/05 03:17:33;;;;;;;5.47;2.63;;;;;;;24.30;56.66;97803.69;5054510;28;20229;-71
2022/08/05 03:20:00;;;;;;;5.55;2.45;;;;;;;24.21;56.87;97805.56;5054723;28;20227;-71
2022/08/05 03:22:26;;;;;;;12.25;2.88;;;;;;;24.19;57.17;97814.03;5054225;28;20205;-71
2022/08/05 03:24:54;;;;;;;7.28;3.17;;;;;;;24.32;56.21;97815.03;5054486;28;20660;-71
2022/08/05 03:27:21;;;;;;;4.20;2.38;;;;;;;24.23;56.72;97819.63;5054715;28;20241;-71
2022/08/05 03:29:47;;;;;;;8.35;2.63;;;;;;;24.16;57.26;97819.28;5054215;28;20232;-71
2022/08/05 03:32:15;;;;;;;6.63;2.75;;;;;;;24.11;57.48;97816.69;5054430;28;20211;-71
2022/08/05 03:34:43;;;;;;;7.65;2.65;;;;;;;24.00;57.78;97821.59;5054351;28;20255;-71
2022/08/05 03:37:10;;;;;;;8.18;2.78;;;;;;;23.95;58.23;97824.44;5054270;28;20229;-71
2022/08/05 03:39:37;;;;;;;8.15;2.90;;;;;;;23.87;58.48;97814.28;5054414;28;20261;-71
2022/08/05 03:42:04;;;;;;;6.13;2.83;;;;;;;23.98;58.07;97812.97;5054018;28;20300;-71
2022/08/05 03:44:30;;;;;;;7.05;2.92;;;;;;;23.92;58.61;97813.41;5054061;28;20205;-71
2022/08/05 03:46:56;;;;;;;6.63;2.78;;;;;;;23.82;58.68;97808.97;5053831;28;20690;-71
2022/08/05 03:49:23;;;;;;;6.00;2.78;;;;;;;23.77;59.28;97808.28;5053671;28;20716;-71
2022/08/05 03:52:00;;;;;;;4.00;2.70;;;;;;;23.71;59.63;97807.66;5054406;28;20296;-71
2022/08/05 03:54:53;;;;;;;5.43;3.08;;;;;;;23.63;59.79;97794.81;5036146;28;20640;-71
2022/08/05 03:57:28;;;;;;;8.13;2.53;;;;;;;23.71;59.33;97790.53;5053932;28;20213;-71
2022/08/05 04:00:08;;;;;;;7.13;2.95;;;;;;;23.65;60.38;97791.78;5053899;28;20251;-71
2022/08/05 04:02:37;;;;;;;3.97;2.63;;;;;;;23.62;60.62;97779.63;5036024;28;20212;-71
2022/08/05 04:05:05;;;;;;;9.55;3.30;;;;;;;23.57;60.60;97785.16;5053708;28;20300;-71
2022/08/05 04:07:33;;;;;;;3.95;2.70;;;;;;;23.66;60.41;97793.38;5053529;28;20668;-71
2022/08/05 04:10:00;;;;;;;6.03;2.85;;;;;;;23.73;59.79;97799.16;5036151;28;20319;-71
2022/08/05 04:12:28;;;;;;;10.77;3.15;;;;;;;23.77;60.02;97797.44;5053628;28;20243;-71
2022/08/05 04:14:55;;;;;;;11.65;3.35;;;;;;;23.70;60.28;97806.00;5053651;28;20597;-71
2022/08/05 04:17:21;;;;;;;10.48;3.95;;;;;;;23.69;60.56;97801.69;5053516;28;20320;-71
2022/08/05 04:19:48;;;;;;;7.45;3.35;;;;;;;23.68;60.90;97802.00;5035711;28;20236;-71
2022/08/05 04:22:15;;;;;;;9.57;3.33;;;;;;;23.64;61.41;97801.00;5053822;28;20296;-71
2022/08/05 04:24:43;;;;;;;7.85;3.67;;;;;;;23.62;61.51;97814.91;5053343;28;20208;-71
2022/08/05 04:27:10;;;;;;;8.02;2.92;;;;;;;23.55;61.07;97830.81;5053313;28;20205;-70
2022/08/05 04:29:36;;;;;;;5.72;2.88;;;;;;;23.63;61.20;97849.09;5052712;28;20742;-71
2022/08/05 04:32:03;;;;;;;7.63;3.10;;;;;;;23.66;61.10;97863.97;5053270;28;20219;-71
2022/08/05 04:34:29;;;;;;;5.88;3.05;;;;;;;23.72;61.62;97884.44;5051877;28;20619;-71
2022/08/05 04:36:56;;;;;;;8.60;4.32;;;;;;;23.84;60.27;97890.13;5052774;28;20295;-71
2022/08/05 04:39:22;;;;;;;5.25;2.90;;;;;;;23.81;60.87;97896.16;5052877;28;20235;-71
2022/08/05 04:41:49;;;;;;;6.28;2.90;;;;;;;23.85;60.55;97905.31;5053133;28;20205;-71
2022/08/05 04:44:16;;;;;;;5.90;3.50;;;;;;;23.79;60.71;97909.25;5052896;28;20205;-71
2022/08/05 04:46:42;;;;;;;5.35;3.13;;;;;;;23.74;61.25;97920.22;5053184;28;20201;-71
2022/08/05 04:49:09;;;;;;;7.93;3.38;;;;;;;23.75;61.04;97919.13;5052939;28;20583;-71
2022/08/05 04:51:35;;;;;;;8.73;3.38;;;;;;;23.79;60.55;97933.69;5052733;28;20671;-71
2022/08/05 04:54:01;;;;;;;6.07;3.40;;;;;;;23.76;60.61;97950.59;5053089;28;20305;-71
2022/08/05 04:56:28;;;;;;;8.18;3.22;;;;;;;23.78;60.85;97942.94;5053033;28;20241;-71
2022/08/05 04:58:54;;;;;;;8.85;3.45;;;;;;;23.73;61.00;97930.28;5052864;28;20236;-71
2022/08/05 05:01:21;;;;;;;6.85;3.20;;;;;;;23.69;61.54;97951.00;5053132;28;20215;-71
2022/08/05 05:03:47;;;;;;;3.78;3.15;;;;;;;23.71;61.41;97969.69;5052847;28;20551;-71
2022/08/05 05:06:14;;;;;;;7.00;3.33;;;;;;;23.66;61.98;97988.81;5053020;28;20256;-71
2022/08/05 05:08:40;;;;;;;8.60;3.20;;;;;;;23.61;62.20;98002.50;5052713;28;20221;-71
2022/08/05 05:11:07;;;;;;;7.35;3.95;;;;;;;23.70;61.59;98006.09;5052868;28;20291;-71
2022/08/05 05:13:33;;;;;;;7.20;4.63;;;;;;;23.79;61.21;97994.22;5052630;28;20208;-71
2022/08/05 05:15:59;;;;;;;7.32;3.75;;;;;;;23.97;60.71;97997.94;5052297;28;20296;-71
2022/08/05 05:18:26;;;;;;;8.93;3.75;;;;;;;24.04;60.61;98003.72;5052461;28;20225;-71
2022/08/05 05:20:52;;;;;;;16.88;6.82;;;;;;;24.21;59.64;98006.59;5052288;28;20234;-71
2022/08/05 05:23:18;;;;;;;4.20;3.75;;;;;;;24.32;59.50;98010.66;5052585;28;20205;-71
2022/08/05 05:25:45;;;;;;;9.15;5.25;;;;;;;24.34;59.46;98011.97;5052361;28;20209;-71
2022/08/05 05:28:12;;;;;;;8.98;3.72;;;;;;;24.30;59.21;98011.00;5052675;28;20296;-71
2022/08/05 05:30:39;;;;;;;7.45;3.63;;;;;;;24.37;59.38;98016.78;5052290;28;20316;-71
2022/08/05 05:33:07;;;;;;;6.35;3.33;;;;;;;24.49;59.31;98019.78;5052273;28;20296;-71
2022/08/05 05:35:34;;;;;;;6.57;3.53;;;;;;;24.59;58.67;98025.00;5052626;28;20213;-71
2022/08/05 05:38:03;;;;;;;9.60;3.50;;;;;;;24.68;59.01;98034.00;5052199;28;20670;-71
2022/08/05 05:40:31;;;;;;;10.23;4.30;;;;;;;24.77;58.39;98025.88;5052599;28;20230;-70
2022/08/05 05:42:57;;;;;;;7.35;3.65;;;;;;;24.87;57.84;98036.53;5052086;28;20292;-70
2022/08/05 05:45:24;;;;;;;7.22;3.70;;;;;;;24.98;58.24;98033.25;5052642;28;20579;-70
2022/08/05 05:47:51;;;;;;;5.82;3.90;;;;;;;25.15;58.00;98036.03;5055639;28;20715;-70
2022/08/05 05:50:19;;;;;;;11.02;4.15;;;;;;;25.06;58.32;98037.91;5056125;28;20311;-70
2022/08/05 05:52:47;;;;;;;7.32;4.03;;;;;;;25.08;57.95;98043.84;5055826;28;20209;-70
2022/08/05 05:55:15;;;;;;;10.50;3.72;;;;;;;25.20;58.25;98056.88;5056138;28;20205;-70
2022/08/05 05:57:44;;;;;;;7.22;3.78;;;;;;;25.23;57.63;98053.53;5056043;28;20224;-70
2022/08/05 06:00:14;;;;;;;7.65;3.65;;;;;;;25.45;56.97;98056.19;5055913;28;20232;-71
2022/08/05 06:02:41;;;;;;;10.30;3.90;;;;;;;25.36;56.92;98058.09;5055654;28;20198;-70
2022/08/05 06:05:10;;;;;;;5.57;3.65;;;;;;;25.34;57.09;98063.06;5055749;28;20208;-70
2022/08/05 06:07:37;;;;;;;6.60;3.50;;;;;;;25.46;56.79;98064.06;5055751;28;20203;-70
2022/08/05 06:10:05;;;;;;;8.57;4.10;;;;;;;25.48;56.33;98074.63;5056207;28;20224;-70
2022/08/05 06:12:33;;;;;;;5.07;3.42;;;;;;;25.55;56.20;98069.56;5055289;28;20288;-70
2022/08/05 06:15:01;;;;;;;6.15;4.05;;;;;;;25.51;56.16;98068.56;5055339;28;20260;-70
2022/08/05 06:17:27;;;;;;;6.88;3.70;;;;;;;25.47;56.39;98078.47;5054667;28;20292;-70
2022/08/05 06:19:54;;;;;;;6.65;3.88;;;;;;;25.57;55.34;98067.31;5054924;28;20311;-71
2022/08/05 06:22:25;;;;;;;7.38;3.50;;;;;;;25.59;56.20;98054.97;5055233;28;20247;-71
2022/08/05 06:24:52;;;;;;;6.88;3.45;;;;;;;25.86;55.60;98071.06;5055498;28;20201;-71
2022/08/05 06:27:19;;;;;;;8.43;3.33;;;;;;;25.76;55.50;98067.84;5055271;28;20655;-71
2022/08/05 06:29:45;;;;;;;7.32;4.30;;;;;;;25.70;55.46;98047.31;5055168;28;20233;-72
2022/08/05 06:32:12;;;;;;;9.43;5.90;;;;;;;25.86;54.84;98043.03;5055026;28;20212;-71
2022/08/05 06:34:39;;;;;;;7.13;3.45;;;;;;;25.90;55.10;98039.38;5055342;28;20233;-71
2022/08/05 06:37:06;;;;;;;9.55;3.55;;;;;;;25.95;54.58;98057.50;5055445;28;20209;-72
2022/08/05 06:39:32;;;;;;;7.82;2.90;;;;;;;26.04;54.31;98061.03;5055244;28;20328;-71
2022/08/05 06:42:01;;;;;;;7.40;4.90;;;;;;;25.86;54.38;98059.38;5054773;28;20691;-71
2022/08/05 06:44:27;;;;;;;6.03;4.10;;;;;;;25.70;54.85;98061.72;5054820;28;20703;-72
2022/08/05 06:46:54;;;;;;;5.43;3.45;;;;;;;25.90;55.07;98050.25;5055039;28;20300;-72
2022/08/05 06:49:21;;;;;;;7.20;4.45;;;;;;;25.89;53.68;98050.56;5054957;28;20232;-72
2022/08/05 06:51:48;;;;;;;4.97;3.20;;;;;;;25.98;53.63;98052.25;5038314;28;20202;-72
2022/08/05 06:54:14;;;;;;;9.15;3.25;;;;;;;26.21;53.67;98045.53;5034805;28;20622;-71
2022/08/05 06:56:41;;;;;;;5.97;2.97;;;;;;;26.38;53.32;98050.19;5034629;28;20308;-72
2022/08/05 06:59:08;;;;;;;5.10;2.80;;;;;;;26.53;52.46;98064.13;5034118;28;20230;-72
2022/08/05 07:01:34;;;;;;;5.38;2.92;;;;;;;26.41;52.44;98068.63;5034689;28;20206;-71
2022/08/05 07:04:01;;;;;;;5.03;3.05;;;;;;;26.42;51.73;98067.50;5035056;28;20297;-72
2022/08/05 07:06:28;;;;;;;3.92;3.00;;;;;;;26.13;52.35;98070.84;5034860;28;20233;-72
2022/08/05 07:08:54;;;;;;;6.78;4.05;;;;;;;26.19;52.19;98079.69;5034582;28;20222;-71
2022/08/05 07:11:20;;;;;;;4.55;3.10;;;;;;;26.19;52.09;98085.13;5035015;28;20264;-71
2022/08/05 07:16:49;;;;;;;3.42;3.13;;;;;;;25.90;53.47;98098.47;5034764;28;20173;-72
2022/08/05 07:19:17;;;;;;;7.45;5.95;;;;;;;26.02;52.83;98104.97;5034653;28;20254;-72
2022/08/05 07:21:48;;;;;;;6.10;5.13;;;;;;;26.35;52.30;98106.16;5034525;28;20206;-72
2022/08/05 07:24:15;;;;;;;4.07;3.45;;;;;;;26.25;52.55;98108.38;5035145;28;20285;-72
2022/08/05 07:26:41;;;;;;;4.63;3.22;;;;;;;26.20;53.11;98106.63;5034238;28;20212;-72
2022/08/05 07:29:09;;;;;;;3.20;2.85;;;;;;;26.42;52.38;98103.72;5035306;28;20228;-72
2022/08/05 07:31:35;;;;;;;5.45;2.80;;;;;;;26.52;50.65;98094.44;5034313;28;20190;-72
2022/08/05 07:34:02;;;;;;;5.20;3.00;;;;;;;26.58;51.07;98109.56;5034116;28;20681;-72
2022/08/05 07:36:29;;;;;;;5.28;3.45;;;;;;;26.76;50.16;98105.69;5034063;28;20206;-72
2022/08/05 07:38:56;;;;;;;6.95;3.17;;;;;;;26.69;50.44;98116.31;5033919;28;20325;-72
2022/08/05 07:41:24;;;;;;;4.45;3.47;;;;;;;26.34;50.76;98112.72;5034294;28;20288;-72
2022/08/05 07:43:51;;;;;;;3.53;3.13;;;;;;;26.68;50.76;98109.25;5033943;28;20234;-72
2022/08/05 07:46:18;;;;;;;3.33;3.03;;;;;;;26.87;50.46;98107.78;5034142;28;20212;-73
2022/08/05 07:48:45;;;;;;;5.95;2.75;;;;;;;27.10;49.91;98106.44;5033984;28;20218;-72
2022/08/05 07:51:11;;;;;;;4.72;2.80;;;;;;;27.21;49.18;98106.16;5033878;28;20267;-72
2022/08/05 07:53:37;;;;;;;3.33;2.97;;;;;;;27.15;47.56;98100.03;5034299;28;20206;-73
2022/08/05 07:56:04;;;;;;;3.42;2.50;;;;;;;27.28;47.18;98099.06;5033779;28;20288;-72
2022/08/05 07:58:31;;;;;;;6.20;2.60;;;;;;;27.28;46.16;98104.53;5033294;28;20676;-72
2022/08/05 08:00:57;;;;;;;3.22;2.35;;;;;;;27.25;46.21;98115.28;5033407;28;20666;-72
2022/08/05 08:03:24;;;;;;;4.47;2.30;;;;;;;27.18;44.92;98107.59;5033230;28;20729;-71
2022/08/05 08:05:51;;;;;;;2.40;2.20;;;;;;;27.44;44.73;98102.88;5033526;28;20212;-70
2022/08/05 08:08:18;;;;;;;2.75;1.98;;;;;;;27.18;43.75;98102.13;5033268;28;20666;-70
2022/08/05 08:10:45;;;;;;;4.95;2.40;;;;;;;27.30;44.65;98102.28;5033752;28;20202;-71
2022/08/05 08:13:11;;;;;;;2.13;2.03;;;;;;;27.50;44.17;98104.31;5033335;28;20205;-70
2022/08/05 08:15:38;;;;;;;2.42;2.13;;;;;;;27.25;43.09;98102.44;5033503;28;20213;-71
2022/08/05 08:18:05;;;;;;;4.15;2.20;;;;;;;27.29;43.19;98103.41;5033732;28;20222;-71
2022/08/05 08:20:31;;;;;;;4.07;2.03;;;;;;;27.69;42.24;98106.63;5033609;28;20704;-71
2022/08/05 08:23:01;;;;;;;4.13;2.55;;;;;;;27.59;42.50;98099.63;5033641;28;20302;-70
2022/08/05 08:25:28;;;;;;;2.38;1.80;;;;;;;27.44;43.30;98111.06;5033736;28;20195;-71
2022/08/05 08:27:55;;;;;;;2.58;1.90;;;;;;;27.63;43.17;98102.50;5032952;28;20578;-71
2022/08/05 08:30:22;;;;;;;5.68;1.90;;;;;;;27.50;43.91;98098.03;5033187;28;20237;-71
2022/08/05 08:32:48;;;;;;;3.50;1.90;;;;;;;27.68;42.65;98111.31;5033142;28;20643;-71
2022/08/05 08:35:15;;;;;;;1.88;1.70;;;;;;;27.68;42.65;98108.59;5033272;28;20305;-70
2022/08/05 08:37:41;;;;;;;2.10;1.90;;;;;;;27.74;42.26;98099.06;5032838;28;20202;-71
2022/08/05 08:40:08;;;;;;;2.28;1.90;;;;;;;27.67;42.58;98096.03;5033060;28;20277;-70
2022/08/05 08:42:36;;;;;;;4.30;2.00;;;;;;;27.42;43.54;98087.94;5033155;28;20210;-70
2022/08/05 08:45:03;;;;;;;2.95;2.20;;;;;;;27.74;43.12;98079.13;5016501;28;20301;-70
2022/08/05 08:47:30;;;;;;;4.05;2.20;;;;;;;27.46;42.97;98089.72;5033482;28;20206;-71
2022/08/05 08:49:58;;;;;;;2.53;1.90;;;;;;;27.93;42.39;98072.16;5032923;28;20222;-71
2022/08/05 08:52:29;;;;;;;2.28;2.08;;;;;;;28.22;41.59;98069.38;5033150;28;20288;-71
2022/08/05 08:54:56;;;;;;;2.55;1.70;;;;;;;28.38;41.19;98067.66;5033205;28;20194;-70
2022/08/05 08:57:23;;;;;;;2.33;2.10;;;;;;;28.06;42.47;98070.28;5033272;28;20202;-70
2022/08/05 08:59:50;;;;;;;4.63;1.90;;;;;;;28.38;41.71;98064.91;5032915;28;20241;-71
2022/08/05 09:02:20;;;;;;;1.90;1.80;;;;;;;28.38;41.45;98064.13;5032572;28;20699;-71
2022/08/05 09:04:47;;;;;;;3.67;1.83;;;;;;;28.51;39.90;98069.34;5033159;28;20216;-71
2022/08/05 09:07:13;;;;;;;2.20;2.00;;;;;;;28.19;41.49;98058.31;5033272;28;20201;-71
2022/08/05 09:09:40;;;;;;;2.33;2.00;;;;;;;28.18;40.99;98059.44;5033447;28;20318;-70
2022/08/05 09:12:10;;;;;;;4.10;2.30;;;;;;;27.94;41.55;98056.56;5033243;28;20228;-71
2022/08/05 09:14:38;;;;;;;2.63;2.00;;;;;;;28.26;40.98;98051.16;5033212;28;20216;-70
2022/08/05 09:17:07;;;;;;;2.63;1.77;;;;;;;28.68;40.63;98044.59;5032790;28;20640;-71
2022/08/05 09:19:34;;;;;;;2.35;2.08;;;;;;;28.17;40.84;98047.69;5032985;28;20233;-71
2022/08/05 09:22:01;;;;;;;3.28;2.20;;;;;;;28.63;40.22;98042.06;5036319;28;20635;-71
2022/08/05 09:24:27;;;;;;;4.45;2.03;;;;;;;28.80;39.12;98035.63;5037284;28;20206;-70
2022/08/05 09:26:57;;;;;;;2.40;1.95;;;;;;;28.64;39.35;98035.47;5036966;28;20205;-72
2022/08/05 09:29:44;;;;;;;3.63;2.10;;;;;;;28.98;38.99;98020.63;5036363;28;20234;-71
2022/08/05 09:32:11;;;;;;;3.28;2.15;;;;;;;28.98;38.62;98028.84;5036864;28;20219;-71
2022/08/05 09:34:53;;;;;;;4.88;2.30;;;;;;;28.62;39.38;98024.03;5036489;28;20209;-71
2022/08/05 09:37:23;;;;;;;4.13;1.92;;;;;;;28.49;39.43;98022.38;5036421;28;20190;-71
2022/08/05 09:39:50;;;;;;;2.28;1.80;;;;;;;28.62;38.27;98021.28;5036423;28;20225;-71
2022/08/05 09:42:22;;;;;;;2.22;1.95;;;;;;;28.19;39.02;98026.31;5036321;28;20206;-71
2022/08/05 09:44:50;;;;;;;2.88;1.90;;;;;;;28.66;39.36;98015.97;5036568;28;20190;-71
2022/08/05 09:47:25;;;;;;;2.38;2.10;;;;;;;28.98;38.53;98021.44;5036292;28;20691;-71
2022/08/05 09:49:54;;;;;;;1.90;1.80;;;;;;;28.94;38.39;98012.28;5036299;28;20226;-71
2022/08/05 09:52:31;;;;;;;4.35;2.05;;;;;;;29.49;37.79;98015.38;5036222;28;20572;-71
2022/08/05 09:55:15;;;;;;;1.83;1.73;;;;;;;29.30;37.10;98022.53;5036202;28;20197;-72
2022/08/05 09:57:46;;;;;;;2.08;1.75;;;;;;;29.64;36.77;98014.72;5035873;28;20192;-72
2022/08/05 10:00:14;;;;;;;2.65;1.70;;;;;;;29.45;36.98;98016.38;5036092;28;20689;-72
2022/08/05 10:02:46;;;;;;;2.10;1.90;;;;;;;29.99;36.97;98018.56;5036247;28;20213;-71
2022/08/05 10:05:16;;;;;;;3.67;1.90;;;;;;;29.91;36.81;98019.47;5036093;28;20186;-71
2022/08/05 10:07:58;;;;;;;1.98;1.83;;;;;;;29.42;36.45;98012.38;5035936;28;20206;-72
2022/08/05 10:10:28;;;;;;;2.53;1.70;;;;;;;29.89;35.87;98012.75;5035673;28;20229;-71
2022/08/05 10:12:57;;;;;;;2.13;1.50;;;;;;;29.87;36.11;98021.31;5035813;28;20216;-71
2022/08/05 10:15:30;;;;;;;2.60;2.25;;;;;;;30.02;36.05;98012.38;5036041;28;20304;-71
2022/08/05 10:18:04;;;;;;;2.85;2.03;;;;;;;29.39;36.48;98015.81;5035335;28;20244;-71
2022/08/05 10:20:33;;;;;;;2.10;1.80;;;;;;;29.05;36.80;98008.00;5035057;28;20233;-71
2022/08/05 10:23:01;;;;;;;2.40;1.98;;;;;;;29.14;37.11;98005.97;5035897;28;20760;-71
2022/08/05 10:25:27;;;;;;;2.35;2.05;;;;;;;29.54;36.66;98006.94;5035462;28;20221;-71
2022/08/05 10:27:54;;;;;;;1.83;1.73;;;;;;;29.91;36.07;98005.78;5035879;28;20292;-71
2022/08/05 10:30:21;;;;;;;1.83;1.48;;;;;;;29.98;35.80;98007.94;5054967;28;20225;-71
2022/08/05 10:32:48;;;;;;;2.00;1.90;;;;;;;30.29;35.09;98003.41;5055427;28;20236;-71
2022/08/05 10:35:15;;;;;;;1.92;1.80;;;;;;;30.13;34.88;97997.09;5055453;28;20568;-71
2022/08/05 10:37:42;;;;;;;1.85;1.70;;;;;;;30.52;34.95;97995.47;5055232;28;20296;-70
2022/08/05 10:40:29;;;;;;;1.70;1.60;;;;;;;30.70;34.70;97994.81;5054903;28;20312;-71
2022/08/05 10:43:07;;;;;;;2.35;1.80;;;;;;;30.49;34.16;97996.16;5055874;28;20647;-71
2022/08/05 10:45:35;;;;;;;1.92;1.70;;;;;;;29.91;34.87;98008.53;5055516;28;20416;-72
2022/08/05 10:48:38;;;;;;;1.70;1.60;;;;;;;30.18;34.72;97996.03;5055267;28;20304;-71
2022/08/05 10:51:18;;;;;;;2.55;2.00;;;;;;;29.64;35.51;98005.69;5054948;28;20747;-72
2022/08/05 10:53:53;;;;;;;2.17;2.00;;;;;;;29.79;35.62;97992.06;5055729;28;20281;-72
2022/08/05 10:56:30;;;;;;;2.38;2.17;;;;;;;30.33;34.22;97984.31;5055131;28;20663;-72
2022/08/05 10:58:59;;;;;;;1.83;1.73;;;;;;;30.41;34.11;97986.94;5055087;28;20231;-72
2022/08/05 11:01:37;;;;;;;2.70;1.88;;;;;;;30.57;34.02;97990.50;5054840;28;20208;-71
2022/08/05 11:04:11;;;;;;;2.42;2.10;;;;;;;30.94;33.46;97985.66;5054809;28;20766;-72
2022/08/05 11:07:05;;;;;;;1.70;1.60;;;;;;;30.94;33.51;97986.47;5054606;28;20552;-72
2022/08/05 11:09:51;;;;;;;2.00;1.80;;;;;;;31.15;33.02;97989.75;5054571;28;20221;-71
2022/08/05 11:12:23;;;;;;;3.42;1.90;;;;;;;31.49;33.34;97985.53;5054394;28;20616;-71
2022/08/05 11:15:06;;;;;;;2.20;2.00;;;;;;;31.29;33.16;97986.63;5054528;28;20747;-71
2022/08/05 11:17:37;;;;;;;2.75;1.50;;;;;;;31.37;32.47;97994.66;5054856;28;20280;-70
2022/08/05 11:20:27;;;;;;;2.00;1.90;;;;;;;31.10;32.23;97990.03;5054617;28;20320;-71
2022/08/05 11:22:54;;;;;;;2.00;1.90;;;;;;;30.90;33.30;97998.50;5054510;28;20206;-71
2022/08/05 11:25:36;;;;;;;2.20;2.00;;;;;;;30.81;33.38;97989.63;5054576;28;20201;-72
2022/08/05 11:28:11;;;;;;;4.55;1.75;;;;;;;31.44;32.78;97991.28;5054581;28;20205;-71
2022/08/05 11:30:56;;;;;;;3.17;2.30;;;;;;;31.40;33.10;97993.97;5054195;28;20232;-72
2022/08/05 11:33:31;;;;;;;2.38;1.83;;;;;;;31.34;32.86;97998.13;5054176;28;20215;-71
2022/08/05 11:36:03;;;;;;;1.90;1.70;;;;;;;31.42;32.72;98002.63;5054035;28;20645;-71
2022/08/05 11:38:38;;;;;;;2.40;2.20;;;;;;;31.49;32.38;97996.50;5053886;28;20262;-71
2022/08/05 11:41:26;;;;;;;2.00;1.80;;;;;;;31.37;32.90;97999.34;5054086;28;20292;-71
2022/08/05 11:44:11;;;;;;;3.40;2.00;;;;;;;31.35;32.30;97996.19;5053039;28;20225;-71
2022/08/05 11:47:04;;;;;;;2.88;2.00;;;;;;;31.83;31.92;97995.81;5053839;28;20212;-71
2022/08/05 11:49:30;;;;;;;2.65;2.10;;;;;;;31.45;32.49;97990.94;5050342;28;20715;-71